sensor_id;sensor_type;location;lat;lon;timestamp;P1;durP1;ratioP1;P2;durP2;ratioP2
69327;SDS011;56472;52.114;5.492;2023-08-21T00:01:50;6.32;;;1.33;;
69327;SDS011;56472;52.114;5.492;2023-08-21T00:04:17;6.93;;;1.50;;
69327;SDS011;56472;52.114;5.492;2023-08-21T00:06:44;2.42;;;1.30;;
69327;SDS011;56472;52.114;5.492;2023-08-21T00:09:11;5.78;;;1.40;;
69327;SDS011;56472;52.114;5.492;2023-08-21T00:11:38;5.65;;;1.83;;
69327;SDS011;56472;52.114;5.492;2023-08-21T00:14:05;4.32;;;1.35;;
69327;SDS011;56472;52.114;5.492;2023-08-21T00:16:32;3.53;;;1.70;;
69327;SDS011;56472;52.114;5.492;2023-08-21T00:19:01;6.57;;;1.52;;
69327;SDS011;56472;52.114;5.492;2023-08-21T00:21:27;5.93;;;1.70;;
69327;SDS011;56472;52.114;5.492;2023-08-21T00:23:55;2.10;;;1.50;;
69327;SDS011;56472;52.114;5.492;2023-08-21T00:26:22;3.10;;;1.20;;
69327;SDS011;56472;52.114;5.492;2023-08-21T00:28:49;3.53;;;1.35;;
69327;SDS011;56472;52.114;5.492;2023-08-21T00:31:16;2.20;;;1.48;;
69327;SDS011;56472;52.114;5.492;2023-08-21T00:33:43;8.88;;;1.90;;
69327;SDS011;56472;52.114;5.492;2023-08-21T00:36:10;5.20;;;1.80;;
69327;SDS011;56472;52.114;5.492;2023-08-21T00:38:37;5.30;;;1.98;;
69327;SDS011;56472;52.114;5.492;2023-08-21T00:41:03;2.30;;;1.52;;
69327;SDS011;56472;52.114;5.492;2023-08-21T00:43:31;4.95;;;1.75;;
69327;SDS011;56472;52.114;5.492;2023-08-21T00:45:58;4.13;;;1.67;;
69327;SDS011;56472;52.114;5.492;2023-08-21T00:48:25;2.70;;;1.67;;
69327;SDS011;56472;52.114;5.492;2023-08-21T00:50:52;4.28;;;2.15;;
69327;SDS011;56472;52.114;5.492;2023-08-21T00:53:19;5.10;;;1.83;;
69327;SDS011;56472;52.114;5.492;2023-08-21T00:55:46;5.18;;;1.90;;
69327;SDS011;56472;52.114;5.492;2023-08-21T00:58:14;7.95;;;1.77;;
69327;SDS011;56472;52.114;5.492;2023-08-21T01:00:44;4.10;;;1.88;;
69327;SDS011;56472;52.114;5.492;2023-08-21T01:03:13;4.95;;;2.00;;
69327;SDS011;56472;52.114;5.492;2023-08-21T01:05:41;4.05;;;1.88;;
69327;SDS011;56472;52.114;5.492;2023-08-21T01:08:25;3.75;;;2.00;;
69327;SDS011;56472;52.114;5.492;2023-08-21T01:11:14;4.57;;;2.13;;
69327;SDS011;56472;52.114;5.492;2023-08-21T01:14:19;4.90;;;2.00;;
69327;SDS011;56472;52.114;5.492;2023-08-21T01:17:10;4.40;;;2.50;;
69327;SDS011;56472;52.114;5.492;2023-08-21T01:22:09;1.40;;;1.25;;
69327;SDS011;56472;52.114;5.492;2023-08-21T01:24:36;4.22;;;1.70;;
69327;SDS011;56472;52.114;5.492;2023-08-21T01:27:03;7.43;;;2.03;;
69327;SDS011;56472;52.114;5.492;2023-08-21T01:29:30;4.43;;;1.75;;
69327;SDS011;56472;52.114;5.492;2023-08-21T01:34:32;3.85;;;1.80;;
69327;SDS011;56472;52.114;5.492;2023-08-21T01:37:00;9.27;;;2.20;;
69327;SDS011;56472;52.114;5.492;2023-08-21T01:39:27;4.97;;;2.10;;
69327;SDS011;56472;52.114;5.492;2023-08-21T01:41:56;8.15;;;2.10;;
69327;SDS011;56472;52.114;5.492;2023-08-21T01:44:24;4.78;;;1.95;;
69327;SDS011;56472;52.114;5.492;2023-08-21T01:46:53;6.13;;;1.85;;
69327;SDS011;56472;52.114;5.492;2023-08-21T01:49:20;4.88;;;2.08;;
69327;SDS011;56472;52.114;5.492;2023-08-21T01:51:47;5.03;;;1.80;;
69327;SDS011;56472;52.114;5.492;2023-08-21T01:54:14;7.10;;;1.80;;
69327;SDS011;56472;52.114;5.492;2023-08-21T01:56:41;7.07;;;1.73;;
69327;SDS011;56472;52.114;5.492;2023-08-21T01:59:08;4.97;;;1.80;;
69327;SDS011;56472;52.114;5.492;2023-08-21T02:01:35;8.15;;;2.08;;
69327;SDS011;56472;52.114;5.492;2023-08-21T02:04:01;3.38;;;2.03;;
69327;SDS011;56472;52.114;5.492;2023-08-21T02:06:28;5.18;;;2.28;;
69327;SDS011;56472;52.114;5.492;2023-08-21T02:08:55;3.75;;;1.65;;
69327;SDS011;56472;52.114;5.492;2023-08-21T02:11:22;5.45;;;1.63;;
69327;SDS011;56472;52.114;5.492;2023-08-21T02:13:51;5.80;;;2.13;;
69327;SDS011;56472;52.114;5.492;2023-08-21T02:16:17;7.43;;;2.33;;
69327;SDS011;56472;52.114;5.492;2023-08-21T02:18:44;12.75;;;2.10;;
69327;SDS011;56472;52.114;5.492;2023-08-21T02:21:11;4.97;;;1.77;;
69327;SDS011;56472;52.114;5.492;2023-08-21T02:23:39;4.63;;;2.00;;
69327;SDS011;56472;52.114;5.492;2023-08-21T02:26:06;5.93;;;2.42;;
69327;SDS011;56472;52.114;5.492;2023-08-21T02:28:33;4.47;;;2.20;;
69327;SDS011;56472;52.114;5.492;2023-08-21T02:30:59;4.72;;;2.20;;
69327;SDS011;56472;52.114;5.492;2023-08-21T02:33:26;6.20;;;2.45;;
69327;SDS011;56472;52.114;5.492;2023-08-21T02:35:54;4.82;;;1.83;;
69327;SDS011;56472;52.114;5.492;2023-08-21T02:38:21;2.25;;;1.95;;
69327;SDS011;56472;52.114;5.492;2023-08-21T02:40:48;3.78;;;2.00;;
69327;SDS011;56472;52.114;5.492;2023-08-21T02:43:15;5.80;;;2.35;;
69327;SDS011;56472;52.114;5.492;2023-08-21T02:45:43;3.50;;;1.73;;
69327;SDS011;56472;52.114;5.492;2023-08-21T02:48:09;8.07;;;2.20;;
69327;SDS011;56472;52.114;5.492;2023-08-21T02:50:36;6.93;;;2.30;;
69327;SDS011;56472;52.114;5.492;2023-08-21T02:53:04;6.22;;;2.05;;
69327;SDS011;56472;52.114;5.492;2023-08-21T02:55:31;4.88;;;2.15;;
69327;SDS011;56472;52.114;5.492;2023-08-21T02:57:58;6.55;;;2.25;;
69327;SDS011;56472;52.114;5.492;2023-08-21T03:00:24;4.03;;;2.17;;
69327;SDS011;56472;52.114;5.492;2023-08-21T03:02:51;10.95;;;2.25;;
69327;SDS011;56472;52.114;5.492;2023-08-21T03:05:18;10.25;;;2.63;;
69327;SDS011;56472;52.114;5.492;2023-08-21T03:07:45;8.48;;;2.17;;
69327;SDS011;56472;52.114;5.492;2023-08-21T03:10:13;6.63;;;2.20;;
69327;SDS011;56472;52.114;5.492;2023-08-21T03:12:40;3.72;;;2.10;;
69327;SDS011;56472;52.114;5.492;2023-08-21T03:15:07;6.97;;;2.35;;
69327;SDS011;56472;52.114;5.492;2023-08-21T03:17:34;3.40;;;2.03;;
69327;SDS011;56472;52.114;5.492;2023-08-21T03:20:02;5.55;;;2.10;;
69327;SDS011;56472;52.114;5.492;2023-08-21T03:22:31;6.22;;;2.47;;
69327;SDS011;56472;52.114;5.492;2023-08-21T03:24:58;6.07;;;2.78;;
69327;SDS011;56472;52.114;5.492;2023-08-21T03:27:25;5.13;;;2.00;;
69327;SDS011;56472;52.114;5.492;2023-08-21T03:29:52;3.83;;;2.30;;
69327;SDS011;56472;52.114;5.492;2023-08-21T03:32:19;2.95;;;2.15;;
69327;SDS011;56472;52.114;5.492;2023-08-21T03:34:46;5.57;;;2.30;;
69327;SDS011;56472;52.114;5.492;2023-08-21T03:37:13;7.80;;;2.15;;
69327;SDS011;56472;52.114;5.492;2023-08-21T03:39:40;5.63;;;2.25;;
69327;SDS011;56472;52.114;5.492;2023-08-21T03:42:09;5.03;;;2.20;;
69327;SDS011;56472;52.114;5.492;2023-08-21T03:44:37;6.55;;;1.90;;
69327;SDS011;56472;52.114;5.492;2023-08-21T03:47:06;4.47;;;2.20;;
69327;SDS011;56472;52.114;5.492;2023-08-21T03:49:40;3.03;;;1.85;;
69327;SDS011;56472;52.114;5.492;2023-08-21T03:52:07;7.43;;;2.20;;
69327;SDS011;56472;52.114;5.492;2023-08-21T03:54:34;3.35;;;1.60;;
69327;SDS011;56472;52.114;5.492;2023-08-21T03:57:01;6.38;;;2.17;;
69327;SDS011;56472;52.114;5.492;2023-08-21T03:59:28;3.85;;;2.13;;
69327;SDS011;56472;52.114;5.492;2023-08-21T04:01:55;4.25;;;2.15;;
69327;SDS011;56472;52.114;5.492;2023-08-21T04:04:22;5.07;;;2.15;;
69327;SDS011;56472;52.114;5.492;2023-08-21T04:06:49;4.47;;;2.08;;
69327;SDS011;56472;52.114;5.492;2023-08-21T04:09:16;3.63;;;1.95;;
69327;SDS011;56472;52.114;5.492;2023-08-21T04:11:43;6.30;;;2.00;;
69327;SDS011;56472;52.114;5.492;2023-08-21T04:14:10;5.43;;;2.20;;
69327;SDS011;56472;52.114;5.492;2023-08-21T04:16:37;4.65;;;2.42;;
69327;SDS011;56472;52.114;5.492;2023-08-21T04:19:05;3.22;;;1.75;;
69327;SDS011;56472;52.114;5.492;2023-08-21T04:21:32;4.15;;;1.85;;
69327;SDS011;56472;52.114;5.492;2023-08-21T04:23:59;8.40;;;1.48;;
69327;SDS011;56472;52.114;5.492;2023-08-21T04:26:26;10.50;;;3.22;;
69327;SDS011;56472;52.114;5.492;2023-08-21T04:28:53;8.95;;;2.25;;
69327;SDS011;56472;52.114;5.492;2023-08-21T04:31:20;9.02;;;2.17;;
69327;SDS011;56472;52.114;5.492;2023-08-21T04:33:48;8.15;;;2.13;;
69327;SDS011;56472;52.114;5.492;2023-08-21T04:36:15;3.17;;;1.83;;
69327;SDS011;56472;52.114;5.492;2023-08-21T04:38:45;4.03;;;1.83;;
69327;SDS011;56472;52.114;5.492;2023-08-21T04:41:12;7.07;;;2.33;;
69327;SDS011;56472;52.114;5.492;2023-08-21T04:43:43;7.43;;;2.33;;
69327;SDS011;56472;52.114;5.492;2023-08-21T04:46:10;4.45;;;1.80;;
69327;SDS011;56472;52.114;5.492;2023-08-21T04:48:39;3.45;;;2.03;;
69327;SDS011;56472;52.114;5.492;2023-08-21T04:51:06;6.90;;;2.33;;
69327;SDS011;56472;52.114;5.492;2023-08-21T04:53:33;4.72;;;2.15;;
69327;SDS011;56472;52.114;5.492;2023-08-21T04:56:01;6.18;;;2.42;;
69327;SDS011;56472;52.114;5.492;2023-08-21T04:58:29;10.80;;;2.35;;
69327;SDS011;56472;52.114;5.492;2023-08-21T05:00:56;7.72;;;2.20;;
69327;SDS011;56472;52.114;5.492;2023-08-21T05:03:24;4.45;;;2.03;;
69327;SDS011;56472;52.114;5.492;2023-08-21T05:05:54;8.48;;;2.28;;
69327;SDS011;56472;52.114;5.492;2023-08-21T05:08:23;3.08;;;2.00;;
69327;SDS011;56472;52.114;5.492;2023-08-21T05:11:00;5.30;;;2.30;;
69327;SDS011;56472;52.114;5.492;2023-08-21T05:13:31;4.57;;;2.10;;
69327;SDS011;56472;52.114;5.492;2023-08-21T05:15:58;5.00;;;2.03;;
69327;SDS011;56472;52.114;5.492;2023-08-21T05:18:30;4.63;;;2.00;;
69327;SDS011;56472;52.114;5.492;2023-08-21T05:20:57;7.45;;;2.15;;
69327;SDS011;56472;52.114;5.492;2023-08-21T05:23:24;5.55;;;2.10;;
69327;SDS011;56472;52.114;5.492;2023-08-21T05:25:55;6.25;;;2.25;;
69327;SDS011;56472;52.114;5.492;2023-08-21T05:28:21;8.93;;;2.13;;
69327;SDS011;56472;52.114;5.492;2023-08-21T05:30:48;5.63;;;1.67;;
69327;SDS011;56472;52.114;5.492;2023-08-21T05:33:17;2.53;;;2.13;;
69327;SDS011;56472;52.114;5.492;2023-08-21T05:35:46;9.75;;;2.20;;
69327;SDS011;56472;52.114;5.492;2023-08-21T05:38:13;6.65;;;2.50;;
69327;SDS011;56472;52.114;5.492;2023-08-21T05:40:40;4.95;;;2.40;;
69327;SDS011;56472;52.114;5.492;2023-08-21T05:43:08;5.75;;;2.60;;
69327;SDS011;56472;52.114;5.492;2023-08-21T05:45:39;6.25;;;2.65;;
69327;SDS011;56472;52.114;5.492;2023-08-21T05:48:06;6.07;;;2.53;;
69327;SDS011;56472;52.114;5.492;2023-08-21T05:50:33;4.90;;;2.03;;
69327;SDS011;56472;52.114;5.492;2023-08-21T05:53:06;4.35;;;2.05;;
69327;SDS011;56472;52.114;5.492;2023-08-21T05:55:33;5.95;;;2.17;;
69327;SDS011;56472;52.114;5.492;2023-08-21T05:58:00;4.70;;;2.33;;
69327;SDS011;56472;52.114;5.492;2023-08-21T06:00:27;1.98;;;1.83;;
69327;SDS011;56472;52.114;5.492;2023-08-21T06:02:54;5.72;;;2.10;;
69327;SDS011;56472;52.114;5.492;2023-08-21T06:05:41;6.90;;;3.00;;
69327;SDS011;56472;52.114;5.492;2023-08-21T06:08:10;2.53;;;2.08;;
69327;SDS011;56472;52.114;5.492;2023-08-21T06:10:36;11.68;;;3.58;;
69327;SDS011;56472;52.114;5.492;2023-08-21T06:13:03;11.60;;;3.33;;
69327;SDS011;56472;52.114;5.492;2023-08-21T06:15:31;8.93;;;3.08;;
69327;SDS011;56472;52.114;5.492;2023-08-21T06:17:58;3.10;;;2.70;;
69327;SDS011;56472;52.114;5.492;2023-08-21T06:20:26;4.53;;;2.88;;
69327;SDS011;56472;52.114;5.492;2023-08-21T06:22:53;8.95;;;2.85;;
69327;SDS011;56472;52.114;5.492;2023-08-21T06:25:20;5.53;;;1.85;;
69327;SDS011;56472;52.114;5.492;2023-08-21T06:27:47;8.68;;;3.13;;
69327;SDS011;56472;52.114;5.492;2023-08-21T06:30:25;6.00;;;2.60;;
69327;SDS011;56472;52.114;5.492;2023-08-21T06:32:53;5.15;;;1.73;;
69327;SDS011;56472;52.114;5.492;2023-08-21T06:35:21;8.95;;;2.78;;
69327;SDS011;56472;52.114;5.492;2023-08-21T06:37:49;13.10;;;2.35;;
69327;SDS011;56472;52.114;5.492;2023-08-21T06:40:16;4.03;;;2.15;;
69327;SDS011;56472;52.114;5.492;2023-08-21T06:42:45;2.75;;;1.90;;
69327;SDS011;56472;52.114;5.492;2023-08-21T06:45:12;4.88;;;1.85;;
69327;SDS011;56472;52.114;5.492;2023-08-21T06:47:39;2.80;;;1.70;;
69327;SDS011;56472;52.114;5.492;2023-08-21T06:50:07;4.20;;;1.63;;
69327;SDS011;56472;52.114;5.492;2023-08-21T06:52:34;4.68;;;2.53;;
69327;SDS011;56472;52.114;5.492;2023-08-21T06:55:02;4.75;;;2.47;;
69327;SDS011;56472;52.114;5.492;2023-08-21T06:57:29;4.00;;;2.60;;
69327;SDS011;56472;52.114;5.492;2023-08-21T06:59:56;4.82;;;2.35;;
69327;SDS011;56472;52.114;5.492;2023-08-21T07:02:23;6.50;;;2.50;;
69327;SDS011;56472;52.114;5.492;2023-08-21T07:04:50;4.40;;;2.40;;
69327;SDS011;56472;52.114;5.492;2023-08-21T07:07:16;6.20;;;2.58;;
69327;SDS011;56472;52.114;5.492;2023-08-21T07:09:43;6.45;;;2.72;;
69327;SDS011;56472;52.114;5.492;2023-08-21T07:12:10;6.63;;;2.63;;
69327;SDS011;56472;52.114;5.492;2023-08-21T07:14:37;3.42;;;2.13;;
69327;SDS011;56472;52.114;5.492;2023-08-21T07:17:04;6.72;;;2.70;;
69327;SDS011;56472;52.114;5.492;2023-08-21T07:19:30;7.95;;;2.97;;
69327;SDS011;56472;52.114;5.492;2023-08-21T07:21:58;6.53;;;2.83;;
69327;SDS011;56472;52.114;5.492;2023-08-21T07:24:25;13.05;;;3.30;;
69327;SDS011;56472;52.114;5.492;2023-08-21T07:26:52;8.50;;;3.08;;
69327;SDS011;56472;52.114;5.492;2023-08-21T07:29:18;6.70;;;3.00;;
69327;SDS011;56472;52.114;5.492;2023-08-21T07:31:46;10.00;;;3.17;;
69327;SDS011;56472;52.114;5.492;2023-08-21T07:34:12;8.10;;;2.92;;
69327;SDS011;56472;52.114;5.492;2023-08-21T07:36:39;6.50;;;2.80;;
69327;SDS011;56472;52.114;5.492;2023-08-21T07:39:07;7.95;;;2.92;;
69327;SDS011;56472;52.114;5.492;2023-08-21T07:41:34;11.63;;;3.05;;
69327;SDS011;56472;52.114;5.492;2023-08-21T07:44:02;9.27;;;2.65;;
69327;SDS011;56472;52.114;5.492;2023-08-21T07:46:29;7.57;;;2.50;;
69327;SDS011;56472;52.114;5.492;2023-08-21T07:48:55;13.73;;;3.05;;
69327;SDS011;56472;52.114;5.492;2023-08-21T07:51:22;10.85;;;2.80;;
69327;SDS011;56472;52.114;5.492;2023-08-21T07:53:49;5.43;;;3.00;;
69327;SDS011;56472;52.114;5.492;2023-08-21T07:56:16;10.52;;;2.70;;
69327;SDS011;56472;52.114;5.492;2023-08-21T07:58:43;8.23;;;2.83;;
69327;SDS011;56472;52.114;5.492;2023-08-21T08:01:10;7.03;;;2.58;;
69327;SDS011;56472;52.114;5.492;2023-08-21T08:03:37;6.95;;;2.95;;
69327;SDS011;56472;52.114;5.492;2023-08-21T08:06:04;13.65;;;3.45;;
69327;SDS011;56472;52.114;5.492;2023-08-21T08:08:31;7.25;;;3.00;;
69327;SDS011;56472;52.114;5.492;2023-08-21T08:11:04;7.80;;;2.35;;
69327;SDS011;56472;52.114;5.492;2023-08-21T08:13:31;8.85;;;2.50;;
69327;SDS011;56472;52.114;5.492;2023-08-21T08:15:58;7.03;;;2.80;;
69327;SDS011;56472;52.114;5.492;2023-08-21T08:18:25;11.38;;;2.97;;
69327;SDS011;56472;52.114;5.492;2023-08-21T08:20:52;3.53;;;2.17;;
69327;SDS011;56472;52.114;5.492;2023-08-21T08:23:19;4.65;;;1.92;;
69327;SDS011;56472;52.114;5.492;2023-08-21T08:25:47;7.35;;;2.30;;
69327;SDS011;56472;52.114;5.492;2023-08-21T08:28:14;11.70;;;2.05;;
69327;SDS011;56472;52.114;5.492;2023-08-21T08:30:41;8.05;;;1.80;;
69327;SDS011;56472;52.114;5.492;2023-08-21T08:33:07;7.32;;;2.13;;
69327;SDS011;56472;52.114;5.492;2023-08-21T08:35:34;8.52;;;2.03;;
69327;SDS011;56472;52.114;5.492;2023-08-21T08:38:01;5.03;;;1.70;;
69327;SDS011;56472;52.114;5.492;2023-08-21T08:40:28;5.45;;;1.67;;
69327;SDS011;56472;52.114;5.492;2023-08-21T08:42:55;5.95;;;1.83;;
69327;SDS011;56472;52.114;5.492;2023-08-21T08:45:28;10.90;;;2.05;;
69327;SDS011;56472;52.114;5.492;2023-08-21T08:47:59;5.47;;;1.88;;
69327;SDS011;56472;52.114;5.492;2023-08-21T08:50:31;3.70;;;1.25;;
69327;SDS011;56472;52.114;5.492;2023-08-21T08:52:58;3.55;;;1.55;;
69327;SDS011;56472;52.114;5.492;2023-08-21T08:55:40;3.00;;;1.50;;
69327;SDS011;56472;52.114;5.492;2023-08-21T08:58:07;3.85;;;1.65;;
69327;SDS011;56472;52.114;5.492;2023-08-21T09:00:34;6.00;;;1.77;;
69327;SDS011;56472;52.114;5.492;2023-08-21T09:03:00;3.47;;;1.42;;
69327;SDS011;56472;52.114;5.492;2023-08-21T09:05:28;4.82;;;1.38;;
69327;SDS011;56472;52.114;5.492;2023-08-21T09:08:13;4.72;;;1.77;;
69327;SDS011;56472;52.114;5.492;2023-08-21T09:10:41;4.97;;;1.42;;
69327;SDS011;56472;52.114;5.492;2023-08-21T09:13:12;2.75;;;1.30;;
69327;SDS011;56472;52.114;5.492;2023-08-21T09:15:45;1.65;;;1.27;;
69327;SDS011;56472;52.114;5.492;2023-08-21T09:18:14;1.80;;;1.20;;
69327;SDS011;56472;52.114;5.492;2023-08-21T09:20:41;4.40;;;1.77;;
69327;SDS011;56472;52.114;5.492;2023-08-21T09:23:12;2.90;;;1.38;;
69327;SDS011;56472;52.114;5.492;2023-08-21T09:25:40;3.38;;;1.27;;
69327;SDS011;56472;52.114;5.492;2023-08-21T09:28:10;3.38;;;1.42;;
69327;SDS011;56472;52.114;5.492;2023-08-21T09:33:33;6.57;;;1.58;;
69327;SDS011;56472;52.114;5.492;2023-08-21T09:36:00;4.78;;;1.50;;
69327;SDS011;56472;52.114;5.492;2023-08-21T09:38:29;3.03;;;1.23;;
69327;SDS011;56472;52.114;5.492;2023-08-21T09:40:56;2.72;;;1.30;;
69327;SDS011;56472;52.114;5.492;2023-08-21T09:43:23;4.00;;;1.50;;
69327;SDS011;56472;52.114;5.492;2023-08-21T09:45:51;3.03;;;1.75;;
69327;SDS011;56472;52.114;5.492;2023-08-21T09:48:22;4.03;;;1.65;;
69327;SDS011;56472;52.114;5.492;2023-08-21T09:50:50;5.82;;;1.90;;
69327;SDS011;56472;52.114;5.492;2023-08-21T09:53:18;4.47;;;1.67;;
69327;SDS011;56472;52.114;5.492;2023-08-21T09:55:52;4.82;;;1.90;;
69327;SDS011;56472;52.114;5.492;2023-08-21T09:58:21;3.15;;;1.40;;
69327;SDS011;56472;52.114;5.492;2023-08-21T10:00:49;4.25;;;1.33;;
69327;SDS011;56472;52.114;5.492;2023-08-21T10:03:20;4.45;;;1.35;;
69327;SDS011;56472;52.114;5.492;2023-08-21T10:05:49;4.45;;;1.25;;
69327;SDS011;56472;52.114;5.492;2023-08-21T10:08:18;2.05;;;1.20;;
69327;SDS011;56472;52.114;5.492;2023-08-21T10:10:50;5.85;;;1.30;;
69327;SDS011;56472;52.114;5.492;2023-08-21T10:13:17;2.65;;;1.10;;
69327;SDS011;56472;52.114;5.492;2023-08-21T10:15:44;3.40;;;1.50;;
69327;SDS011;56472;52.114;5.492;2023-08-21T10:18:24;3.20;;;1.42;;
69327;SDS011;56472;52.114;5.492;2023-08-21T10:20:55;4.50;;;1.63;;
69327;SDS011;56472;52.114;5.492;2023-08-21T10:23:29;3.88;;;1.27;;
69327;SDS011;56472;52.114;5.492;2023-08-21T10:25:58;2.65;;;1.00;;
69327;SDS011;56472;52.114;5.492;2023-08-21T10:33:59;2.80;;;1.15;;
69327;SDS011;56472;52.114;5.492;2023-08-21T10:39:34;2.47;;;1.27;;
69327;SDS011;56472;52.114;5.492;2023-08-21T10:49:54;4.50;;;1.20;;
69327;SDS011;56472;52.114;5.492;2023-08-21T10:52:38;2.88;;;1.05;;
69327;SDS011;56472;52.114;5.492;2023-08-21T10:55:08;5.20;;;1.30;;
69327;SDS011;56472;52.114;5.492;2023-08-21T10:57:36;2.03;;;0.95;;
69327;SDS011;56472;52.114;5.492;2023-08-21T11:02:41;1.73;;;0.93;;
69327;SDS011;56472;52.114;5.492;2023-08-21T11:05:10;3.33;;;1.15;;
69327;SDS011;56472;52.114;5.492;2023-08-21T11:07:47;3.15;;;1.35;;
69327;SDS011;56472;52.114;5.492;2023-08-21T11:10:16;3.63;;;1.13;;
69327;SDS011;56472;52.114;5.492;2023-08-21T11:12:48;2.15;;;0.80;;
69327;SDS011;56472;52.114;5.492;2023-08-21T11:15:16;1.48;;;1.10;;
69327;SDS011;56472;52.114;5.492;2023-08-21T11:17:54;1.90;;;0.88;;
69327;SDS011;56472;52.114;5.492;2023-08-21T11:20:27;1.30;;;0.90;;
69327;SDS011;56472;52.114;5.492;2023-08-21T11:22:58;1.45;;;0.82;;
69327;SDS011;56472;52.114;5.492;2023-08-21T11:25:29;1.90;;;1.00;;
69327;SDS011;56472;52.114;5.492;2023-08-21T11:27:56;2.00;;;0.80;;
69327;SDS011;56472;52.114;5.492;2023-08-21T11:30:23;4.13;;;0.90;;
69327;SDS011;56472;52.114;5.492;2023-08-21T11:33:09;1.23;;;0.90;;
69327;SDS011;56472;52.114;5.492;2023-08-21T11:35:38;2.67;;;1.20;;
69327;SDS011;56472;52.114;5.492;2023-08-21T11:38:06;1.83;;;0.88;;
69327;SDS011;56472;52.114;5.492;2023-08-21T11:40:40;1.55;;;0.85;;
69327;SDS011;56472;52.114;5.492;2023-08-21T11:43:07;4.90;;;1.40;;
69327;SDS011;56472;52.114;5.492;2023-08-21T11:45:35;3.42;;;1.00;;
69327;SDS011;56472;52.114;5.492;2023-08-21T11:48:22;3.47;;;1.20;;
69327;SDS011;56472;52.114;5.492;2023-08-21T11:50:49;1.08;;;0.73;;
69327;SDS011;56472;52.114;5.492;2023-08-21T11:53:29;0.68;;;0.60;;
69327;SDS011;56472;52.114;5.492;2023-08-21T11:56:09;1.77;;;1.00;;
69327;SDS011;56472;52.114;5.492;2023-08-21T11:58:47;3.88;;;1.13;;
69327;SDS011;56472;52.114;5.492;2023-08-21T12:01:19;2.88;;;0.80;;
69327;SDS011;56472;52.114;5.492;2023-08-21T12:03:47;1.30;;;0.90;;
69327;SDS011;56472;52.114;5.492;2023-08-21T12:06:21;1.30;;;0.82;;
69327;SDS011;56472;52.114;5.492;2023-08-21T12:08:49;1.23;;;0.80;;
69327;SDS011;56472;52.114;5.492;2023-08-21T12:11:15;0.75;;;0.75;;
69327;SDS011;56472;52.114;5.492;2023-08-21T12:13:42;3.15;;;1.00;;
69327;SDS011;56472;52.114;5.492;2023-08-21T12:16:09;3.70;;;0.80;;
69327;SDS011;56472;52.114;5.492;2023-08-21T12:18:36;0.88;;;0.70;;
69327;SDS011;56472;52.114;5.492;2023-08-21T12:21:03;2.58;;;1.00;;
69327;SDS011;56472;52.114;5.492;2023-08-21T12:23:30;4.40;;;0.93;;
69327;SDS011;56472;52.114;5.492;2023-08-21T12:25:57;1.20;;;0.63;;
69327;SDS011;56472;52.114;5.492;2023-08-21T12:28:24;2.80;;;0.93;;
69327;SDS011;56472;52.114;5.492;2023-08-21T12:30:50;1.27;;;1.10;;
69327;SDS011;56472;52.114;5.492;2023-08-21T12:33:17;1.02;;;0.73;;
69327;SDS011;56472;52.114;5.492;2023-08-21T12:35:50;2.05;;;0.70;;
69327;SDS011;56472;52.114;5.492;2023-08-21T12:38:17;1.70;;;0.80;;
69327;SDS011;56472;52.114;5.492;2023-08-21T12:40:44;2.47;;;0.63;;
69327;SDS011;56472;52.114;5.492;2023-08-21T12:43:10;2.15;;;1.00;;
69327;SDS011;56472;52.114;5.492;2023-08-21T12:45:37;0.73;;;0.73;;
69327;SDS011;56472;52.114;5.492;2023-08-21T12:48:04;2.65;;;1.10;;
69327;SDS011;56472;52.114;5.492;2023-08-21T12:50:32;1.77;;;0.93;;
69327;SDS011;56472;52.114;5.492;2023-08-21T12:52:59;1.45;;;0.80;;
69327;SDS011;56472;52.114;5.492;2023-08-21T12:55:26;1.90;;;0.80;;
69327;SDS011;56472;52.114;5.492;2023-08-21T12:57:55;1.45;;;1.00;;
69327;SDS011;56472;52.114;5.492;2023-08-21T13:00:22;1.13;;;0.77;;
69327;SDS011;56472;52.114;5.492;2023-08-21T13:02:49;3.70;;;0.90;;
69327;SDS011;56472;52.114;5.492;2023-08-21T13:05:16;3.63;;;0.80;;
69327;SDS011;56472;52.114;5.492;2023-08-21T13:07:43;1.00;;;0.70;;
69327;SDS011;56472;52.114;5.492;2023-08-21T13:10:10;3.53;;;0.63;;
69327;SDS011;56472;52.114;5.492;2023-08-21T13:12:37;0.90;;;0.80;;
69327;SDS011;56472;52.114;5.492;2023-08-21T13:15:04;1.65;;;0.70;;
69327;SDS011;56472;52.114;5.492;2023-08-21T13:17:34;2.95;;;0.93;;
69327;SDS011;56472;52.114;5.492;2023-08-21T13:20:01;2.15;;;0.82;;
69327;SDS011;56472;52.114;5.492;2023-08-21T13:22:29;2.05;;;1.20;;
69327;SDS011;56472;52.114;5.492;2023-08-21T13:25:15;1.38;;;0.90;;
69327;SDS011;56472;52.114;5.492;2023-08-21T13:27:42;2.17;;;0.90;;
69327;SDS011;56472;52.114;5.492;2023-08-21T13:30:09;3.03;;;1.10;;
69327;SDS011;56472;52.114;5.492;2023-08-21T13:32:37;3.60;;;1.00;;
69327;SDS011;56472;52.114;5.492;2023-08-21T13:35:04;1.30;;;0.80;;
69327;SDS011;56472;52.114;5.492;2023-08-21T13:37:33;1.60;;;1.20;;
69327;SDS011;56472;52.114;5.492;2023-08-21T13:40:00;2.88;;;1.17;;
69327;SDS011;56472;52.114;5.492;2023-08-21T13:42:28;1.65;;;1.05;;
69327;SDS011;56472;52.114;5.492;2023-08-21T13:44:56;2.67;;;1.20;;
69327;SDS011;56472;52.114;5.492;2023-08-21T13:47:23;1.65;;;0.88;;
69327;SDS011;56472;52.114;5.492;2023-08-21T13:49:50;2.28;;;1.27;;
69327;SDS011;56472;52.114;5.492;2023-08-21T13:52:17;1.35;;;1.08;;
69327;SDS011;56472;52.114;5.492;2023-08-21T13:54:44;2.45;;;1.23;;
69327;SDS011;56472;52.114;5.492;2023-08-21T13:57:11;2.08;;;1.30;;
69327;SDS011;56472;52.114;5.492;2023-08-21T13:59:38;3.75;;;1.23;;
69327;SDS011;56472;52.114;5.492;2023-08-21T14:02:05;4.00;;;1.27;;
69327;SDS011;56472;52.114;5.492;2023-08-21T14:04:31;2.85;;;1.42;;
69327;SDS011;56472;52.114;5.492;2023-08-21T14:06:58;1.63;;;1.20;;
69327;SDS011;56472;52.114;5.492;2023-08-21T14:09:25;4.75;;;1.17;;
69327;SDS011;56472;52.114;5.492;2023-08-21T14:11:52;2.00;;;1.10;;
69327;SDS011;56472;52.114;5.492;2023-08-21T14:14:19;1.05;;;1.05;;
69327;SDS011;56472;52.114;5.492;2023-08-21T14:16:45;3.13;;;1.40;;
69327;SDS011;56472;52.114;5.492;2023-08-21T14:19:12;3.65;;;1.20;;
69327;SDS011;56472;52.114;5.492;2023-08-21T14:21:39;1.23;;;0.80;;
69327;SDS011;56472;52.114;5.492;2023-08-21T14:24:06;1.27;;;0.85;;
69327;SDS011;56472;52.114;5.492;2023-08-21T14:26:34;1.92;;;1.08;;
69327;SDS011;56472;52.114;5.492;2023-08-21T14:29:01;2.22;;;1.00;;
69327;SDS011;56472;52.114;5.492;2023-08-21T14:31:27;1.83;;;0.98;;
69327;SDS011;56472;52.114;5.492;2023-08-21T14:33:54;1.02;;;0.80;;
69327;SDS011;56472;52.114;5.492;2023-08-21T14:36:21;3.22;;;1.20;;
69327;SDS011;56472;52.114;5.492;2023-08-21T14:38:48;1.08;;;0.93;;
69327;SDS011;56472;52.114;5.492;2023-08-21T14:41:15;1.67;;;1.15;;
69327;SDS011;56472;52.114;5.492;2023-08-21T14:43:42;1.80;;;0.98;;
69327;SDS011;56472;52.114;5.492;2023-08-21T14:46:10;1.15;;;1.00;;
69327;SDS011;56472;52.114;5.492;2023-08-21T14:48:37;2.63;;;0.90;;
69327;SDS011;56472;52.114;5.492;2023-08-21T14:51:04;1.20;;;0.90;;
69327;SDS011;56472;52.114;5.492;2023-08-21T14:53:31;1.42;;;0.90;;
69327;SDS011;56472;52.114;5.492;2023-08-21T14:55:58;1.48;;;1.00;;
69327;SDS011;56472;52.114;5.492;2023-08-21T14:58:25;6.10;;;1.27;;
69327;SDS011;56472;52.114;5.492;2023-08-21T15:00:54;1.90;;;0.80;;
69327;SDS011;56472;52.114;5.492;2023-08-21T15:03:22;3.22;;;0.90;;
69327;SDS011;56472;52.114;5.492;2023-08-21T15:05:49;1.85;;;1.08;;
69327;SDS011;56472;52.114;5.492;2023-08-21T15:08:17;2.85;;;0.80;;
69327;SDS011;56472;52.114;5.492;2023-08-21T15:10:43;1.50;;;0.90;;
69327;SDS011;56472;52.114;5.492;2023-08-21T15:13:10;2.55;;;1.00;;
69327;SDS011;56472;52.114;5.492;2023-08-21T15:15:37;1.73;;;1.10;;
69327;SDS011;56472;52.114;5.492;2023-08-21T15:18:04;2.35;;;1.10;;
69327;SDS011;56472;52.114;5.492;2023-08-21T15:20:31;2.88;;;0.90;;
69327;SDS011;56472;52.114;5.492;2023-08-21T15:22:58;5.82;;;0.75;;